Aviation Digital Data Service (ADDS)

Output produced by METARs form (0754 UTC 23 October 2014)
found at http://www.aviationweather.gov/adds/metars/
 
KUNV 230735Z AUTO 33007G14KT 10SM OVC017 09/05 A2998 RMK AO2 T00850052
KUNV 230715Z AUTO 35010G15KT 10SM OVC017 09/05 A2999 RMK AO2 LTG DSNT E T00850051
KUNV 230655Z AUTO 35008G15KT 10SM -RA OVC017 09/05 A3000 RMK AO2 T00860052
KUNV 230635Z AUTO 35003KT 10SM OVC019 09/05 A3000 RMK AO2 T00850050
KUNV 230615Z AUTO 34007KT 10SM OVC019 09/05 A3000 RMK AO2 T00850050
KUNV 230555Z AUTO 36012G17KT 10SM OVC017 09/05 A3000 RMK AO2 T00850050 10085 20080
KUNV 230535Z AUTO 36006KT 10SM OVC017 09/05 A3000 RMK AO2 LTG DSNT NE T00850050
KUNV 230515Z AUTO 35007G14KT 10SM OVC017 08/05 A3001 RMK AO2 T00830050
KUNV 230455Z AUTO 01006KT 10SM OVC017 08/05 A3002 RMK AO2 T00820050
KUNV 230435Z AUTO 34009KT 10SM OVC017 08/05 A3002 RMK AO2 T00820050
KUNV 230415Z AUTO 36006KT 10SM OVC017 08/05 A3003 RMK AO2 T00820050
KUNV 230355Z AUTO 35007G18KT 10SM OVC017 08/05 A3004 RMK AO2 T00810048 401120080
KUNV 230335Z AUTO 35007G18KT 310V010 10SM OVC017 08/05 A3004 RMK AO2 LTG DSNT NE T00820047
KUNV 230315Z AUTO 36006G15KT 10SM OVC017 08/05 A3004 RMK AO2 LTG DSNT NE T00810047
KUNV 230255Z AUTO 35014G19KT 10SM OVC017 08/05 A3005 RMK AO2 LTG DSNT E T00800046
KUNV 230235Z AUTO 34007KT 10SM OVC019 08/05 A3005 RMK AO2 T00800045
KUNV 230215Z AUTO 36011KT 10SM OVC019 08/05 A3006 RMK AO2 T00800045
KUNV 230155Z AUTO 34010KT 300V360 10SM OVC019 08/05 A3006 RMK AO2 T00800045
KUNV 230053Z 36010KT 10SM OVC017 08/05 A3007
KUNV 222353Z 36010KT 10SM OVC019 08/05 A3008
KUNV 222253Z 01012KT 10SM OVC021 09/05 A3007
KUNV 222153Z 36012KT 10SM OVC021 09/05 A3006
KUNV 222053Z 35010KT 10SM OVC023 10/06 A3006
KUNV 221953Z 35011G17KT 10SM OVC025 10/06 A3005
KUNV 221853Z 02011G16KT 10SM OVC026 11/06 A3005
KUNV 221753Z 03012G20KT 10SM OVC024 11/06 A3006
KUNV 221653Z 02009KT 10SM OVC020 10/07 A3006
KUNV 221553Z 02011KT 10SM OVC018 10/07 A3006
KUNV 221453Z 02011KT 10SM OVC016 09/07 A3006
KUNV 221353Z 03010KT 10SM OVC014 09/06 A3006
KUNV 221253Z 02008KT 10SM OVC014 09/06 A3004
KUNV 221153Z 36007KT 10SM OVC016 09/06 A3003
KUNV 221053Z 02008KT 10SM BKN018 BKN036 OVC050 09/06 A3001
KUNV 220935Z AUTO 01008KT 10SM SCT017 OVC075 10/07 A2999 RMK AO2 LTG DSNT SE T00950072
KUNV 220915Z AUTO 01006KT 10SM SCT017 OVC075 09/07 A2998 RMK AO2 T00930073
KUNV 220855Z AUTO 02005KT 10SM BKN041 BKN075 BKN090 09/07 A2998 RMK AO2 T00930074
KUNV 220835Z AUTO 03004KT 10SM BKN041 OVC070 10/08 A2998 RMK AO2 T00970075
KUNV 220815Z AUTO 02004KT 10SM OVC070 10/08 A2997 RMK AO2 T00950076
KUNV 220755Z AUTO 02003KT 10SM OVC070 09/08 A2996 RMK AO2 T00940078
KUNV 220735Z AUTO 02004KT 10SM SCT021 OVC070 10/08 A2996 RMK AO2 T00950080
KUNV 220715Z AUTO 02005KT 10SM SCT021 OVC070 10/08 A2996 RMK AO2 T00950080
KUNV 220655Z AUTO 02007KT 10SM OVC070 10/08 A2996 RMK AO2 T00960080
KUNV 220635Z AUTO 02007KT 10SM OVC070 09/08 A2996 RMK AO2 T00940080
KUNV 220615Z AUTO 00000KT 10SM SCT017 SCT033 OVC070 09/08 A2996 RMK AO2 T00880076
KUNV 220555Z AUTO 36004KT 10SM SCT017 BKN033 OVC080 09/08 A2995 RMK AO2 LTG DSNT SE T00940081 10106 20094
KUNV 220535Z AUTO 02005KT 10SM BKN019 BKN033 OVC080 10/08 A2996 RMK AO2 T00960082
KUNV 220515Z AUTO 04005KT 10SM OVC019 10/08 A2996 RMK AO2 T00990083
KUNV 220455Z AUTO 04005KT 10SM BKN019 BKN050 OVC080 10/08 A2996 RMK AO2 T00980083
KUNV 220435Z AUTO 02003KT 10SM SCT019 SCT050 OVC080 10/08 A2996 RMK AO2 LTG DSNT SE T00980082
KUNV 220415Z AUTO 01004KT 10SM BKN019 BKN041 OVC080 10/08 A2996 RMK AO2 T01000083
KUNV 220355Z AUTO 36003KT 10SM SCT019 SCT039 OVC080 10/08 A2996 RMK AO2 T00980082 401430075
KUNV 220335Z AUTO 00000KT 10SM SCT065 OVC080 10/08 A2996 RMK AO2 T00980084
KUNV 220315Z AUTO 00000KT 10SM SCT065 OVC080 10/08 A2997 RMK AO2 T00960083
KUNV 220255Z AUTO 00000KT 10SM SCT024 SCT032 OVC060 10/09 A2997 RMK AO2 T01000085
KUNV 220235Z AUTO 00000KT 10SM BKN024 BKN029 OVC080 10/09 A2996 RMK AO2 T01000085
KUNV 220215Z AUTO 00000KT 10SM SCT028 BKN060 OVC080 10/09 A2996 RMK AO2 T00970087
KUNV 220155Z AUTO 00000KT 10SM SCT035 BKN060 OVC070 10/09 A2995 RMK AO2 T01010085
KUNV 220053Z 00000KT 7SM BKN050 OVC070 10/09 A2994
KUNV 212353Z 00000KT 7SM SCT033 OVC050 10/09 A2992
KUNV 212253Z 00000KT 7SM SCT055 OVC080 10/09 A2990
KUNV 212153Z VRB04KT 7SM OVC080 11/09 A2988
KUNV 212053Z 33005KT 7SM -RA SCT045 OVC080 11/09 A2987